Time;durP1;ratioP1;P1;durP2;ratioP2;P2;SDS_P1;SDS_P2;PMS_P1;PMS_P2;Temp;Humidity;BMP_temperature;BMP_pressure;BME280_temperature;BME280_humidity;BME280_pressure;Samples;Min_cycle;Max_cycle;Signal;HPM_P1;HPM_P2
2022/07/02 00:01:10;;;;;;;3.92;2.05;;;;;;;24.89;53.11;99979.53;4475308;32;33510;-87
2022/07/02 00:03:40;;;;;;;3.25;2.95;;;;;;;24.59;54.01;99992.38;4463383;32;34429;-87
2022/07/02 00:06:09;;;;;;;5.47;2.53;;;;;;;24.75;53.78;100003.37;4454801;32;32739;-87
2022/07/02 00:08:37;;;;;;;3.50;2.35;;;;;;;24.75;53.75;99995.25;4468975;32;33252;-87
2022/07/02 00:11:05;;;;;;;3.15;2.70;;;;;;;24.82;53.58;99992.78;4455567;32;32984;-87
2022/07/02 00:13:33;;;;;;;6.57;3.05;;;;;;;24.62;54.36;100000.19;4462948;32;34695;-87
2022/07/02 00:16:02;;;;;;;3.42;2.40;;;;;;;24.98;53.24;99992.97;4458096;32;33748;-87
2022/07/02 00:18:31;;;;;;;10.93;2.92;;;;;;;24.68;54.03;99994.16;4468161;32;33418;-87
2022/07/02 00:21:00;;;;;;;5.95;2.78;;;;;;;24.96;53.36;99984.16;4469022;32;33783;-87
2022/07/02 00:23:27;;;;;;;3.65;3.03;;;;;;;24.88;53.58;99980.53;4457594;32;34256;-87
2022/07/02 00:26:08;;;;;;;5.00;2.83;;;;;;;24.56;54.22;99978.34;4439260;32;33168;-88
2022/07/02 00:28:38;;;;;;;5.10;3.00;;;;;;;24.69;53.94;99978.84;4462833;32;32227;-88
2022/07/02 00:31:06;;;;;;;4.62;2.70;;;;;;;24.83;53.51;99974.72;4466726;32;34427;-88
2022/07/02 00:33:35;;;;;;;3.95;3.10;;;;;;;24.80;53.76;99977.75;4456043;32;33257;-88
2022/07/02 00:36:04;;;;;;;5.85;2.90;;;;;;;24.76;53.85;99994.25;4455979;32;34504;-88
2022/07/02 00:38:32;;;;;;;3.83;3.10;;;;;;;24.73;53.67;100004.50;4471108;32;32873;-88
2022/07/02 00:41:02;;;;;;;5.22;2.22;;;;;;;24.82;53.38;100000.03;4446893;32;32493;-88
2022/07/02 00:43:31;;;;;;;2.90;2.70;;;;;;;24.76;53.60;99994.25;4463108;32;34426;-88
2022/07/02 00:45:59;;;;;;;5.07;3.15;;;;;;;24.99;52.85;99988.41;4436251;32;32601;-88
2022/07/02 00:48:27;;;;;;;3.35;2.60;;;;;;;25.09;52.35;99983.78;4444132;32;31949;-87
2022/07/02 00:50:55;;;;;;;5.50;2.78;;;;;;;24.93;52.99;99992.56;4466368;32;33474;-87
2022/07/02 00:53:23;;;;;;;2.70;2.25;;;;;;;24.54;54.04;100002.78;4450104;32;33642;-88
2022/07/02 00:55:56;;;;;;;5.40;2.08;;;;;;;24.62;53.44;99997.47;4441369;32;32978;-87
2022/07/02 00:58:25;;;;;;;4.43;2.10;;;;;;;24.84;52.97;99984.56;4471410;32;33082;-88
2022/07/02 01:00:53;;;;;;;4.37;2.33;;;;;;;24.84;52.94;99968.34;4460222;32;33801;-88
2022/07/02 01:03:22;;;;;;;2.40;2.20;;;;;;;24.75;53.15;99970.97;4449731;32;33302;-89
2022/07/02 01:05:51;;;;;;;3.45;2.55;;;;;;;24.62;53.43;99989.38;4460607;32;34189;-88
2022/07/02 01:11:17;;;;;;;3.58;2.28;;;;;;;24.50;53.41;99998.72;4460115;32;34534;-89
2022/07/02 01:13:47;;;;;;;5.45;3.20;;;;;;;24.43;53.47;100008.41;4446818;32;33399;-89
2022/07/02 01:16:15;;;;;;;5.78;2.30;;;;;;;24.24;53.77;100007.47;4461751;32;33046;-88
2022/07/02 01:18:45;;;;;;;3.45;2.45;;;;;;;24.31;53.69;99998.78;4463655;32;34131;-88
2022/07/02 01:21:13;;;;;;;5.65;2.53;;;;;;;24.16;53.90;99988.47;4445634;32;33061;-89
2022/07/02 01:23:40;;;;;;;4.15;2.08;;;;;;;24.15;53.87;99994.88;4444243;32;32713;-88
2022/07/02 01:26:09;;;;;;;1.90;1.70;;;;;;;24.01;53.94;99998.06;4440182;32;33927;-89
2022/07/02 01:28:37;;;;;;;5.00;1.60;;;;;;;23.80;54.54;100021.72;4464078;32;32065;-90
2022/07/02 01:31:04;;;;;;;2.62;1.27;;;;;;;23.77;54.59;100033.63;4468711;32;33831;-89
2022/07/02 01:33:32;;;;;;;4.45;1.17;;;;;;;23.27;55.58;100033.84;4444275;32;32956;-89
2022/07/02 01:36:00;;;;;;;1.35;0.98;;;;;;;23.50;54.72;100037.09;4457677;32;33008;-89
2022/07/02 01:38:29;;;;;;;2.65;0.88;;;;;;;23.45;54.46;100051.00;4450736;32;32077;-90
2022/07/02 01:41:38;;;;;;;3.10;0.98;;;;;;;22.97;55.51;100056.34;4452926;32;33099;-89
2022/07/02 01:43:44;;;;;;;3.90;1.25;;;;;;;22.90;55.42;100064.16;4470152;32;33606;-89
2022/07/02 01:46:13;;;;;;;1.95;0.70;;;;;;;22.61;55.92;100058.69;4445964;32;31817;-89
2022/07/02 01:48:41;;;;;;;0.93;0.73;;;;;;;22.58;55.52;100050.87;4435730;32;33296;-90
2022/07/02 01:51:09;;;;;;;0.50;0.50;;;;;;;22.48;55.85;100036.53;4453062;32;32693;-89
2022/07/02 01:53:37;;;;;;;0.80;0.57;;;;;;;22.03;57.15;100039.63;4460619;32;33199;-89
2022/07/02 01:56:05;;;;;;;3.08;1.75;;;;;;;21.77;58.03;100043.72;4434107;32;34049;-89
2022/07/02 01:58:32;;;;;;;1.25;0.60;;;;;;;22.27;56.37;100027.72;4455255;32;33270;-89
2022/07/02 02:01:00;;;;;;;1.75;1.25;;;;;;;22.22;56.46;100011.97;4445684;32;33135;-89
2022/07/02 02:03:28;;;;;;;3.28;0.90;;;;;;;21.93;57.13;99998.38;4447610;32;32450;-90
2022/07/02 02:05:57;;;;;;;3.28;0.70;;;;;;;21.70;57.51;99974.38;4446253;32;34485;-90
2022/07/02 02:08:26;;;;;;;1.80;0.68;;;;;;;21.79;57.35;99961.97;4465059;32;33523;-90
2022/07/02 02:10:55;;;;;;;1.08;0.75;;;;;;;21.77;57.41;99930.81;4447415;32;33841;-89
2022/07/02 02:13:23;;;;;;;2.55;1.02;;;;;;;21.69;57.68;99915.38;4446421;32;34130;-89
2022/07/02 02:15:53;;;;;;;1.50;1.12;;;;;;;21.53;58.61;99915.03;4469845;32;34857;-89
2022/07/02 02:18:20;;;;;;;0.70;0.70;;;;;;;21.73;58.13;99919.47;4457135;32;33663;-89
2022/07/02 02:20:48;;;;;;;2.62;1.10;;;;;;;21.42;59.26;99929.41;4469697;32;33113;-89
2022/07/02 02:23:16;;;;;;;1.33;0.77;;;;;;;21.04;60.81;99936.19;4449236;32;33436;-89
2022/07/02 02:25:44;;;;;;;5.55;0.80;;;;;;;21.46;59.26;99944.28;4471663;32;32560;-89
2022/07/02 02:28:13;;;;;;;4.37;0.75;;;;;;;21.47;59.05;99922.63;4458342;32;33941;-89
2022/07/02 02:30:41;;;;;;;4.00;0.93;;;;;;;21.85;57.90;99907.66;4457650;32;32822;-89
2022/07/02 02:33:09;;;;;;;2.17;1.27;;;;;;;21.39;59.42;99910.84;4456784;32;33616;-89
2022/07/02 02:35:38;;;;;;;6.03;1.17;;;;;;;21.52;59.33;99918.69;4470035;32;33750;-89
2022/07/02 02:38:05;;;;;;;1.65;1.08;;;;;;;21.54;59.29;99936.38;4462680;32;34016;-89
2022/07/02 02:40:33;;;;;;;1.42;1.20;;;;;;;21.36;59.95;99954.09;4463437;32;32733;-89
2022/07/02 02:43:02;;;;;;;2.65;0.93;;;;;;;21.38;59.76;99952.97;4455357;32;32699;-88
2022/07/02 02:45:30;;;;;;;1.00;0.90;;;;;;;21.14;60.54;99974.69;4449338;32;32705;-87
2022/07/02 02:48:02;;;;;;;2.55;0.60;;;;;;;21.07;60.75;99980.69;4458125;32;32298;-86
2022/07/02 02:50:30;;;;;;;1.65;0.75;;;;;;;21.11;60.44;99988.38;4469672;32;33911;-86
2022/07/02 02:52:59;;;;;;;0.85;0.77;;;;;;;21.46;59.21;99995.31;4447684;32;33661;-86
2022/07/02 02:55:27;;;;;;;0.98;0.65;;;;;;;21.29;59.46;99990.50;4469717;32;33825;-86
2022/07/02 02:57:55;;;;;;;1.23;0.93;;;;;;;21.27;59.63;99981.69;4456350;32;33257;-87
2022/07/02 03:00:24;;;;;;;1.08;0.95;;;;;;;21.18;60.05;99989.56;4448976;32;32884;-86
2022/07/02 03:02:53;;;;;;;0.88;0.73;;;;;;;21.04;60.36;99991.72;4458715;32;33747;-86
2022/07/02 03:05:23;;;;;;;4.10;1.35;;;;;;;20.92;61.07;100012.38;4462524;32;34352;-86
2022/07/02 03:07:51;;;;;;;2.20;0.90;;;;;;;20.79;61.42;99995.59;4454561;32;34800;-86
2022/07/02 03:10:19;;;;;;;2.87;1.08;;;;;;;20.76;61.47;100003.91;4452454;32;34010;-86
2022/07/02 03:12:47;;;;;;;3.03;1.30;;;;;;;20.86;61.13;100016.44;4446097;32;33533;-87
2022/07/02 03:15:15;;;;;;;1.37;1.15;;;;;;;20.69;61.81;100015.12;4454180;32;33417;-88
2022/07/02 03:17:43;;;;;;;2.45;1.37;;;;;;;20.87;61.32;100017.28;4447274;32;32049;-89
2022/07/02 03:20:11;;;;;;;1.23;0.82;;;;;;;20.63;62.03;100028.22;4453676;32;33918;-88
2022/07/02 03:22:39;;;;;;;1.95;1.25;;;;;;;20.75;61.73;100026.34;4453220;32;34333;-88
2022/07/02 03:25:08;;;;;;;2.05;1.20;;;;;;;20.62;62.22;100030.03;4454177;32;33756;-89
2022/07/02 03:27:38;;;;;;;4.45;1.15;;;;;;;20.76;61.94;100025.38;4452827;32;31780;-88
2022/07/02 03:30:07;;;;;;;5.40;1.58;;;;;;;20.63;62.28;100029.06;4453720;32;33534;-88
2022/07/02 03:32:36;;;;;;;3.42;1.10;;;;;;;20.59;62.54;100032.12;4453114;32;34020;-87
2022/07/02 03:35:06;;;;;;;2.25;1.20;;;;;;;20.60;62.50;100041.84;4441346;32;33124;-88
2022/07/02 03:37:34;;;;;;;1.77;1.67;;;;;;;20.53;62.88;100054.94;4454026;32;32285;-87
2022/07/02 03:40:03;;;;;;;3.53;1.23;;;;;;;20.83;62.13;100069.50;4432687;32;33852;-87
2022/07/02 03:42:30;;;;;;;4.93;2.10;;;;;;;20.63;62.58;100068.44;4452894;32;33591;-87
2022/07/02 03:44:58;;;;;;;3.67;1.55;;;;;;;20.77;62.04;100059.28;4453760;32;33849;-87
2022/07/02 03:47:26;;;;;;;1.10;1.00;;;;;;;20.96;61.48;100065.69;4447747;32;32289;-87
2022/07/02 03:49:54;;;;;;;2.22;1.35;;;;;;;20.87;61.90;100068.28;4453507;32;34142;-87
2022/07/02 03:52:22;;;;;;;1.85;1.37;;;;;;;20.95;61.36;100079.25;4434133;32;32940;-87
2022/07/02 03:54:51;;;;;;;1.80;1.15;;;;;;;21.09;60.79;100097.75;4452847;32;34685;-87
2022/07/02 03:57:19;;;;;;;4.47;1.17;;;;;;;21.13;60.74;100099.19;4454293;32;32581;-87
2022/07/02 03:59:46;;;;;;;1.48;0.93;;;;;;;20.96;61.03;100097.03;4444514;32;33506;-89
2022/07/02 04:02:16;;;;;;;1.33;1.02;;;;;;;21.12;60.62;100110.03;4449478;32;33218;-89
2022/07/02 04:04:44;;;;;;;1.92;1.20;;;;;;;20.92;61.40;100100.97;4452673;32;34764;-89
2022/07/02 04:07:12;;;;;;;4.37;1.00;;;;;;;21.05;61.02;100095.44;4452111;31;33114;-88
2022/07/02 04:09:43;;;;;;;6.00;1.30;;;;;;;21.19;60.60;100112.09;4472880;32;34130;-90
2022/07/02 04:12:11;;;;;;;1.90;1.52;;;;;;;21.40;59.76;100116.69;4470951;32;35078;-89
2022/07/02 04:14:39;;;;;;;1.40;1.00;;;;;;;21.35;59.95;100130.50;4464676;32;33600;-88
2022/07/02 04:17:07;;;;;;;3.12;2.60;;;;;;;21.37;60.20;100127.72;4471039;32;32674;-89
2022/07/02 04:19:35;;;;;;;1.25;1.08;;;;;;;21.46;59.62;100132.31;4457977;32;33554;-88
2022/07/02 04:22:04;;;;;;;1.35;1.25;;;;;;;21.79;58.69;100125.94;4460566;31;34351;-89
2022/07/02 04:24:32;;;;;;;4.03;1.60;;;;;;;21.82;58.70;100128.34;4450078;31;33019;-89
2022/07/02 04:27:00;;;;;;;3.58;1.20;;;;;;;21.86;58.54;100134.31;4446693;32;33085;-89
2022/07/02 04:29:28;;;;;;;4.57;1.42;;;;;;;21.84;58.58;100125.50;4459887;32;33796;-90
2022/07/02 04:31:56;;;;;;;2.37;1.40;;;;;;;21.80;58.46;100124.94;4458131;32;33443;-89
2022/07/02 04:34:25;;;;;;;4.30;1.40;;;;;;;21.50;59.22;100128.37;4444819;32;35156;-89
2022/07/02 04:36:53;;;;;;;2.55;1.30;;;;;;;21.78;58.52;100126.03;4457126;32;32711;-89
2022/07/02 04:39:21;;;;;;;2.58;1.30;;;;;;;22.03;58.02;100144.47;4451406;32;33663;-90
2022/07/02 04:41:50;;;;;;;2.58;1.65;;;;;;;21.97;58.18;100147.69;4446336;32;32609;-88
2022/07/02 04:44:18;;;;;;;3.92;1.98;;;;;;;21.87;58.48;100150.31;4469511;31;33352;-88
2022/07/02 04:46:50;;;;;;;2.55;2.05;;;;;;;22.04;58.21;100142.66;4472833;31;32967;-88
2022/07/02 04:49:19;;;;;;;2.33;1.45;;;;;;;21.96;58.61;100148.66;4462231;32;33163;-88
2022/07/02 04:51:46;;;;;;;6.12;1.58;;;;;;;22.04;57.87;100148.87;4462041;31;33223;-87
2022/07/02 04:54:14;;;;;;;1.67;1.30;;;;;;;22.28;57.36;100151.31;4446981;32;32321;-86
2022/07/02 04:56:43;;;;;;;4.82;1.70;;;;;;;22.09;57.91;100156.53;4457194;31;33595;-87
2022/07/02 04:59:12;;;;;;;1.92;1.77;;;;;;;22.15;57.35;100156.88;4468321;31;33819;-86
2022/07/02 05:01:44;;;;;;;2.17;1.92;;;;;;;21.80;59.03;100157.19;4469926;31;34047;-87
2022/07/02 05:04:14;;;;;;;2.60;1.92;;;;;;;22.16;57.87;100168.50;4472420;31;35082;-86
2022/07/02 05:06:44;;;;;;;1.55;1.45;;;;;;;21.87;58.27;100171.81;4459272;31;34112;-86
2022/07/02 05:09:13;;;;;;;1.90;1.70;;;;;;;22.17;58.16;100176.44;4459862;32;33528;-87
2022/07/02 05:11:42;;;;;;;1.92;1.52;;;;;;;22.27;57.52;100178.34;4453089;32;33701;-87
2022/07/02 05:14:11;;;;;;;1.95;1.70;;;;;;;22.55;56.78;100182.16;4453753;32;33766;-87
2022/07/02 05:16:39;;;;;;;4.30;2.10;;;;;;;22.40;56.98;100181.66;4442281;32;34751;-87
2022/07/02 05:19:10;;;;;;;8.85;2.37;;;;;;;22.47;56.90;100191.75;4441645;32;34633;-86
2022/07/02 05:21:43;;;;;;;1.95;1.80;;;;;;;22.35;57.07;100191.97;4444317;32;32994;-88
2022/07/02 05:24:12;;;;;;;3.12;2.53;;;;;;;22.39;57.10;100206.87;4458866;32;33447;-88
2022/07/02 05:26:40;;;;;;;2.05;1.55;;;;;;;22.51;56.68;100204.97;4443988;32;32577;-89
2022/07/02 05:29:09;;;;;;;1.65;1.42;;;;;;;22.36;57.33;100223.25;4430460;32;33345;-88
2022/07/02 05:31:37;;;;;;;4.15;2.42;;;;;;;22.83;56.23;100221.81;4458337;32;33158;-89
2022/07/02 05:34:06;;;;;;;2.17;1.85;;;;;;;22.81;55.93;100228.34;4436353;32;32841;-89
2022/07/02 05:36:38;;;;;;;2.15;1.60;;;;;;;22.69;56.30;100232.94;4444077;32;32738;-87
2022/07/02 05:39:08;;;;;;;1.95;1.75;;;;;;;23.02;56.26;100237.22;4457938;32;33408;-88
2022/07/02 05:41:38;;;;;;;1.73;1.62;;;;;;;23.49;54.35;100240.19;4441199;32;33961;-87
2022/07/02 05:44:08;;;;;;;3.05;1.87;;;;;;;23.20;55.49;100267.06;4433465;32;33621;-87
2022/07/02 05:46:37;;;;;;;2.55;2.35;;;;;;;23.17;54.50;100257.44;4439629;32;34079;-87
2022/07/02 05:49:05;;;;;;;3.40;2.55;;;;;;;22.82;55.96;100262.34;4454504;32;33953;-87
2022/07/02 05:51:34;;;;;;;4.65;2.67;;;;;;;22.73;56.57;100270.22;4456397;32;33705;-87
2022/07/02 05:54:03;;;;;;;3.78;2.03;;;;;;;22.98;55.57;100268.97;4454035;32;31862;-87
2022/07/02 05:56:33;;;;;;;2.25;2.05;;;;;;;22.77;56.05;100254.66;4456996;32;33094;-87
2022/07/02 05:59:05;;;;;;;2.45;2.22;;;;;;;23.32;54.68;100246.28;4451826;32;32970;-87
2022/07/02 06:01:33;;;;;;;2.62;1.90;;;;;;;22.97;55.50;100239.47;4445070;32;33951;-87
2022/07/02 06:04:02;;;;;;;2.35;2.15;;;;;;;23.36;54.46;100250.37;4439496;32;34344;-88
2022/07/02 06:09:20;;;;;;;3.35;2.00;;;;;;;23.82;53.26;100251.63;4456779;32;33768;-87
2022/07/02 06:11:49;;;;;;;1.92;1.73;;;;;;;24.01;52.82;100251.63;4430467;32;32643;-89
2022/07/02 06:14:25;;;;;;;2.22;1.83;;;;;;;23.91;53.39;100251.63;4441165;32;32858;-90
2022/07/02 06:16:57;;;;;;;5.50;1.83;;;;;;;24.48;51.79;100257.13;4455074;32;33404;-89
2022/07/02 06:19:25;;;;;;;4.00;2.10;;;;;;;24.34;51.77;100279.16;4439600;32;33034;-88
2022/07/02 06:21:54;;;;;;;2.67;2.47;;;;;;;24.38;51.45;100253.59;4445366;32;33389;-88
2022/07/02 06:24:24;;;;;;;2.33;2.00;;;;;;;24.25;51.82;100253.87;4446960;32;33120;-87
2022/07/02 06:26:53;;;;;;;3.00;1.83;;;;;;;24.24;52.15;100269.22;4454321;32;33407;-88
2022/07/02 06:29:22;;;;;;;3.03;2.28;;;;;;;24.48;52.17;100276.03;4458952;32;33031;-87
2022/07/02 06:31:51;;;;;;;2.00;1.90;;;;;;;24.70;51.03;100275.72;4447039;32;33587;-88
2022/07/02 06:34:19;;;;;;;2.65;2.15;;;;;;;24.91;50.66;100266.53;4454323;32;33806;-88
2022/07/02 06:36:48;;;;;;;2.70;2.00;;;;;;;24.90;49.90;100275.66;4444918;32;35059;-88
2022/07/02 06:39:16;;;;;;;1.60;1.50;;;;;;;25.10;49.93;100276.44;4455973;32;33617;-87
2022/07/02 06:44:47;;;;;;;1.73;1.62;;;;;;;25.46;48.61;100277.41;4451425;32;33557;-88
2022/07/02 06:47:17;;;;;;;5.32;2.00;;;;;;;25.64;48.88;100278.31;4460851;32;33787;-87
2022/07/02 06:49:55;;;;;;;2.03;1.80;;;;;;;25.72;48.40;100283.78;4458547;32;33598;-90
2022/07/02 06:52:33;;;;;;;2.70;2.10;;;;;;;25.84;47.78;100275.50;4448393;32;33054;-90
2022/07/02 06:55:30;;;;;;;6.65;2.05;;;;;;;25.72;47.72;100280.22;4436408;32;33588;-86
2022/07/02 06:58:11;;;;;;;3.62;1.87;;;;;;;25.85;47.51;100283.44;4461574;32;30516;-89
2022/07/02 07:00:41;;;;;;;2.67;2.10;;;;;;;26.01;47.41;100282.75;4441786;32;32389;-88
2022/07/02 07:03:11;;;;;;;2.50;1.90;;;;;;;26.01;47.70;100290.84;4436079;32;33664;-88
2022/07/02 07:05:47;;;;;;;9.50;2.08;;;;;;;25.41;48.01;100290.53;4444228;32;34184;-88
2022/07/02 07:08:25;;;;;;;3.97;1.77;;;;;;;25.78;47.15;100288.63;4447383;32;32736;-88
2022/07/02 07:11:03;;;;;;;2.20;2.00;;;;;;;25.81;47.94;100295.56;4458994;32;35120;-87
2022/07/02 07:13:33;;;;;;;2.22;1.75;;;;;;;25.90;47.47;100293.81;4432920;32;34267;-88
2022/07/02 07:16:03;;;;;;;3.72;2.03;;;;;;;25.74;48.00;100292.59;4457494;32;34572;-88
2022/07/02 07:18:34;;;;;;;3.12;1.87;;;;;;;26.08;47.26;100291.09;4446921;32;32188;-89
2022/07/02 07:21:06;;;;;;;3.22;2.25;;;;;;;26.61;46.11;100296.47;4444770;32;33083;-89
2022/07/02 07:23:36;;;;;;;6.03;2.08;;;;;;;26.19;46.33;100296.28;4445780;32;33431;-89
2022/07/02 07:26:05;;;;;;;3.33;2.35;;;;;;;26.35;47.07;100307.25;4434488;32;32621;-88
2022/07/02 07:28:35;;;;;;;2.40;1.77;;;;;;;26.55;45.93;100305.25;4455464;32;33184;-88
2022/07/02 07:31:03;;;;;;;2.85;2.05;;;;;;;26.67;45.83;100306.66;4443845;32;34934;-88
2022/07/02 07:33:32;;;;;;;3.25;2.00;;;;;;;26.73;45.59;100310.59;4435373;32;34828;-88
2022/07/02 07:36:06;;;;;;;5.32;2.28;;;;;;;26.69;44.66;100309.25;4445792;32;32716;-88
2022/07/02 07:38:42;;;;;;;2.00;1.83;;;;;;;26.98;44.54;100315.19;4437146;32;32986;-89
2022/07/02 07:41:11;;;;;;;3.58;1.87;;;;;;;26.96;44.73;100317.19;4459610;32;34278;-89
2022/07/02 07:43:42;;;;;;;6.97;2.50;;;;;;;26.97;44.49;100315.34;4456941;32;33960;-87
2022/07/02 07:46:19;;;;;;;2.35;2.17;;;;;;;27.08;44.59;100320.53;4458654;32;34025;-89
2022/07/02 07:48:50;;;;;;;4.20;1.98;;;;;;;27.06;45.41;100308.94;4459883;32;32750;-89
2022/07/02 07:51:20;;;;;;;4.13;1.93;;;;;;;27.24;44.54;100315.16;4445572;32;33509;-88
2022/07/02 07:53:54;;;;;;;3.28;1.75;;;;;;;27.36;43.41;100317.63;4448345;32;32348;-89
2022/07/02 07:59:01;;;;;;;5.30;2.00;;;;;;;27.34;44.72;100325.03;4442944;32;32292;-88
2022/07/02 08:01:36;;;;;;;2.37;2.17;;;;;;;27.10;44.06;100320.34;4457213;32;33447;-88
2022/07/02 08:04:16;;;;;;;6.32;2.30;;;;;;;27.21;43.26;100320.94;4454108;32;33506;-89
2022/07/02 08:06:46;;;;;;;2.37;2.15;;;;;;;27.04;44.46;100324.53;4455590;32;34146;-89
2022/07/02 08:09:15;;;;;;;2.15;1.95;;;;;;;27.68;42.87;100323.16;4454056;32;32131;-89
2022/07/02 08:11:48;;;;;;;5.57;2.10;;;;;;;27.72;43.43;100313.69;4445357;32;32403;-89
2022/07/02 08:14:18;;;;;;;1.98;1.75;;;;;;;27.51;44.29;100315.97;4454926;32;33043;-88
2022/07/02 08:16:47;;;;;;;2.58;2.17;;;;;;;27.71;43.76;100312.00;4444540;32;34512;-88
2022/07/02 08:19:16;;;;;;;7.15;2.78;;;;;;;27.61;42.74;100311.25;4457510;32;33558;-88
2022/07/02 08:21:49;;;;;;;2.90;2.05;;;;;;;28.11;43.00;100310.41;4435497;32;32796;-89
2022/07/02 08:24:17;;;;;;;5.20;2.17;;;;;;;28.38;41.65;100313.81;4443778;32;35638;-87
2022/07/02 08:26:46;;;;;;;3.58;2.62;;;;;;;28.04;42.38;100312.91;4454374;32;33514;-88
2022/07/02 08:29:15;;;;;;;7.82;2.60;;;;;;;28.15;42.48;100306.31;4443968;32;33083;-87
2022/07/02 08:34:23;;;;;;;2.28;2.08;;;;;;;28.51;40.84;100303.31;4457304;32;33508;-87
2022/07/02 08:36:54;;;;;;;2.22;2.03;;;;;;;28.55;41.12;100307.38;4454998;32;33163;-87
2022/07/02 08:39:24;;;;;;;4.57;2.00;;;;;;;28.64;41.05;100308.22;4444226;32;32475;-87
2022/07/02 08:41:53;;;;;;;41.13;6.40;;;;;;;28.50;41.44;100312.47;4451156;32;32966;-87
2022/07/02 08:44:26;;;;;;;2.72;2.42;;;;;;;28.71;40.45;100309.22;4442748;32;33920;-88
2022/07/02 08:46:56;;;;;;;8.75;3.20;;;;;;;28.83;41.47;100310.56;4454848;32;33191;-88
2022/07/02 08:49:25;;;;;;;6.07;2.58;;;;;;;29.15;39.56;100303.38;4450497;32;32190;-87
2022/07/02 08:52:04;;;;;;;11.07;3.03;;;;;;;28.90;39.90;100302.56;4444332;32;33961;-88
2022/07/02 08:54:32;;;;;;;5.03;2.37;;;;;;;29.38;39.72;100298.00;4446569;32;33502;-88
2022/07/02 08:57:03;;;;;;;2.72;2.17;;;;;;;29.58;38.83;100302.06;4459604;32;31458;-87
2022/07/02 08:59:33;;;;;;;6.40;2.72;;;;;;;29.56;39.09;100295.91;4453073;32;31772;-87
2022/07/02 09:02:10;;;;;;;2.53;2.33;;;;;;;29.45;38.96;100301.75;4435840;32;33317;-87
2022/07/02 09:04:47;;;;;;;3.47;2.92;;;;;;;29.24;39.73;100305.88;4454763;32;33674;-88
2022/07/02 09:07:17;;;;;;;5.18;2.10;;;;;;;29.53;38.77;100304.41;4448243;31;35385;-87
2022/07/02 09:09:48;;;;;;;5.97;1.92;;;;;;;29.55;38.63;100296.94;4449953;31;31834;-87
2022/07/02 09:12:23;;;;;;;4.25;2.40;;;;;;;29.71;38.83;100302.28;4450593;31;32368;-88
2022/07/02 09:14:55;;;;;;;3.72;2.30;;;;;;;29.37;38.96;100299.88;4469715;31;33978;-88
2022/07/02 09:17:27;;;;;;;5.22;2.72;;;;;;;29.80;38.23;100295.78;4472103;31;34358;-88
2022/07/02 09:19:57;;;;;;;4.68;2.72;;;;;;;30.07;37.75;100301.75;4461686;31;32611;-88
2022/07/02 09:22:35;;;;;;;3.12;2.50;;;;;;;29.82;38.04;100293.75;4462188;31;32827;-87
2022/07/02 09:25:14;;;;;;;13.55;4.45;;;;;;;29.47;38.46;100296.94;4476728;31;33193;-88
2022/07/02 09:27:45;;;;;;;3.87;2.30;;;;;;;29.53;39.50;100288.06;4470632;31;33553;-88
2022/07/02 09:30:16;;;;;;;5.72;2.72;;;;;;;29.64;39.31;100278.72;4470697;31;32955;-88
2022/07/02 09:33:28;;;;;;;2.70;2.33;;;;;;;29.88;38.71;100291.31;4473755;31;34618;-88
2022/07/02 09:35:40;;;;;;;3.20;2.35;;;;;;;30.09;37.73;100286.06;4474557;31;36772;-88
2022/07/02 09:38:11;;;;;;;3.25;2.55;;;;;;;30.12;37.49;100285.69;4446635;31;33705;-87
2022/07/02 09:41:01;;;;;;;2.28;2.08;;;;;;;30.09;37.33;100284.16;4485964;31;33653;-87
2022/07/02 09:43:35;;;;;;;2.30;2.10;;;;;;;30.17;36.91;100296.09;4472711;31;33629;-88
2022/07/02 09:46:19;;;;;;;3.10;2.20;;;;;;;30.11;37.99;100286.72;4461191;31;33370;-88
2022/07/02 09:48:52;;;;;;;2.50;2.30;;;;;;;30.05;38.37;100292.88;4459350;31;34192;-87
2022/07/02 09:51:28;;;;;;;2.85;2.40;;;;;;;30.05;37.64;100291.03;4474488;31;31498;-87
2022/07/02 09:53:57;;;;;;;3.97;2.03;;;;;;;30.20;37.13;100293.84;4460761;31;33765;-87
2022/07/02 09:56:27;;;;;;;3.47;2.37;;;;;;;30.24;36.75;100297.03;4473759;31;33204;-87
2022/07/02 09:58:56;;;;;;;2.97;2.70;;;;;;;30.32;36.44;100289.62;4470454;31;31357;-88
2022/07/02 10:01:25;;;;;;;3.00;2.53;;;;;;;30.24;37.04;100297.91;4460210;31;32223;-87
2022/07/02 10:03:56;;;;;;;4.62;2.30;;;;;;;30.39;37.25;100291.66;4459291;31;34224;-88
2022/07/02 10:06:24;;;;;;;2.78;2.40;;;;;;;30.55;36.59;100300.50;4473675;31;34090;-88
2022/07/02 10:08:58;;;;;;;4.05;2.62;;;;;;;30.64;37.39;100298.56;4485879;31;34030;-88
2022/07/02 10:11:32;;;;;;;5.82;2.22;;;;;;;30.78;36.26;100294.19;4473165;31;34166;-88
2022/07/02 10:14:07;;;;;;;8.63;3.28;;;;;;;30.98;36.96;100294.50;4476376;31;33989;-88
2022/07/02 10:16:47;;;;;;;3.90;2.45;;;;;;;31.19;35.83;100278.19;4473487;31;33345;-88
2022/07/02 10:19:18;;;;;;;3.65;2.20;;;;;;;30.96;35.95;100282.94;4474056;31;32741;-87
2022/07/02 10:21:49;;;;;;;3.72;2.55;;;;;;;30.66;36.21;100285.59;4459997;31;32807;-88
2022/07/02 10:24:26;;;;;;;2.62;2.28;;;;;;;30.55;36.89;100291.50;4484825;31;33841;-88
2022/07/02 10:27:03;;;;;;;6.03;2.70;;;;;;;30.54;35.91;100287.09;4473003;31;33098;-87
2022/07/02 10:29:33;;;;;;;6.20;2.50;;;;;;;30.84;36.16;100282.53;4461291;31;33905;-87
2022/07/02 10:32:32;;;;;;;3.40;2.42;;;;;;;30.72;36.02;100281.31;4463543;31;33250;-87
2022/07/02 10:35:12;;;;;;;3.90;2.00;;;;;;;31.15;35.34;100274.19;4472161;31;33105;-87
2022/07/02 10:37:46;;;;;;;4.93;2.67;;;;;;;31.13;35.22;100281.69;4474361;31;33145;-88
2022/07/02 10:40:18;;;;;;;2.85;2.25;;;;;;;31.56;35.11;100287.31;4453145;31;31634;-88
2022/07/02 10:42:51;;;;;;;5.18;2.28;;;;;;;31.43;34.59;100277.09;4478154;31;33338;-89
2022/07/02 10:45:25;;;;;;;2.90;2.10;;;;;;;31.41;34.28;100272.88;4459609;31;34150;-88
2022/07/02 10:48:03;;;;;;;3.47;2.28;;;;;;;31.34;34.58;100275.53;4471632;31;33153;-88
2022/07/02 10:50:39;;;;;;;3.70;2.15;;;;;;;31.42;33.93;100272.66;4462710;31;33050;-87
2022/07/02 10:53:08;;;;;;;3.65;2.08;;;;;;;31.81;33.61;100269.56;4470647;31;32737;-88
2022/07/02 10:55:43;;;;;;;2.35;2.15;;;;;;;31.80;33.67;100262.38;4460349;31;34097;-88
2022/07/02 10:58:19;;;;;;;2.10;1.90;;;;;;;31.82;32.80;100262.25;4474205;31;31505;-87
2022/07/02 11:03:34;;;;;;;3.05;1.85;;;;;;;32.12;33.69;100261.06;4475082;31;33768;-88
2022/07/02 11:06:07;;;;;;;3.58;1.90;;;;;;;32.16;32.67;100260.69;4460575;31;33919;-88
2022/07/02 11:08:43;;;;;;;4.78;1.92;;;;;;;32.43;32.04;100261.78;4467770;32;33384;-88
2022/07/02 11:11:17;;;;;;;4.10;2.70;;;;;;;32.42;32.09;100262.81;4473448;32;33686;-88
2022/07/02 11:13:54;;;;;;;2.28;1.85;;;;;;;32.26;33.41;100253.00;4471774;32;32225;-88
2022/07/02 11:16:40;;;;;;;3.03;2.78;;;;;;;32.44;32.33;100253.41;4469629;32;34452;-87
2022/07/02 11:19:22;;;;;;;6.55;2.10;;;;;;;32.06;31.87;100252.81;4452998;32;32588;-88
2022/07/02 11:21:54;;;;;;;2.30;2.10;;;;;;;32.53;31.74;100240.44;4468916;32;33382;-87
2022/07/02 11:24:29;;;;;;;2.17;1.98;;;;;;;32.33;31.63;100252.03;4468140;32;32502;-88
2022/07/02 11:26:59;;;;;;;4.33;1.70;;;;;;;32.67;31.24;100247.69;4471196;32;33360;-87
2022/07/02 11:29:30;;;;;;;3.42;2.45;;;;;;;32.49;32.19;100250.06;4459722;32;35019;-87
2022/07/02 11:34:42;;;;;;;5.40;2.03;;;;;;;33.00;31.55;100249.81;4470169;32;33719;-88
2022/07/02 11:37:21;;;;;;;2.67;1.80;;;;;;;32.91;30.74;100249.12;4458162;32;33739;-88
2022/07/02 11:39:50;;;;;;;3.20;2.12;;;;;;;32.26;31.87;100245.62;4473265;32;32678;-88
2022/07/02 11:42:36;;;;;;;2.47;2.00;;;;;;;32.13;31.42;100254.56;4446984;32;32436;-88
2022/07/02 11:45:08;;;;;;;3.42;2.22;;;;;;;32.49;31.51;100241.88;4456341;32;33436;-87
2022/07/02 11:53:12;;;;;;;2.90;1.77;;;;;;;32.42;31.98;100243.69;4472764;32;33829;-88
2022/07/02 11:58:18;;;;;;;4.65;2.00;;;;;;;32.52;31.38;100233.25;4469713;32;33978;-88
2022/07/02 12:00:49;;;;;;;2.25;2.00;;;;;;;32.28;31.61;100232.63;4454893;32;36404;-87
2022/07/02 12:03:18;;;;;;;1.83;1.73;;;;;;;32.54;31.55;100229.28;4471577;32;33861;-87
2022/07/02 12:05:51;;;;;;;4.95;2.17;;;;;;;32.48;31.24;100237.44;4458324;32;33084;-89
2022/07/02 12:08:27;;;;;;;3.83;1.85;;;;;;;32.85;30.93;100230.72;4455273;32;32605;-88
2022/07/02 12:10:56;;;;;;;7.40;2.17;;;;;;;32.71;31.49;100220.75;4471493;32;34503;-88